Terminal Aerodrome Forecast
Issued by NWS Sterling, VA

Home | Current Version | Previous Version | Text Only | Print | Product List | Glossary On
Versions: 1 2 3 4 5 6 7 8 9 10 11 12 13 14 15 16 17 18 19
000
FTUS41 KLWX 282322
TAFDCA
TAF
KDCA 282322Z 2900/2924 17008KT P6SM FEW050
     FM290200 16006KT P6SM FEW250
     FM291900 15006KT 6SM -SHRA OVC050
     FM292200 15007KT 5SM SHRA BR OVC045=

USA.gov is the U.S. government's official web portal to all federal, state and local government web resources and services.